sensor_id;sensor_type;location;lat;lon;timestamp;P1;durP1;ratioP1;P2;durP2;ratioP2
20122;SDS011;10222;50.848;4.336;2023-02-01T00:01:07;8.90;;;3.97;;
20122;SDS011;10222;50.848;4.336;2023-02-01T00:03:35;11.50;;;4.03;;
20122;SDS011;10222;50.848;4.336;2023-02-01T00:06:01;9.50;;;3.97;;
20122;SDS011;10222;50.848;4.336;2023-02-01T00:08:29;9.50;;;4.43;;
20122;SDS011;10222;50.848;4.336;2023-02-01T00:11:00;7.03;;;4.33;;
20122;SDS011;10222;50.848;4.336;2023-02-01T00:13:28;8.20;;;4.60;;
20122;SDS011;10222;50.848;4.336;2023-02-01T00:16:01;9.33;;;4.57;;
20122;SDS011;10222;50.848;4.336;2023-02-01T00:18:27;6.67;;;4.20;;
20122;SDS011;10222;50.848;4.336;2023-02-01T00:20:54;10.73;;;3.90;;
20122;SDS011;10222;50.848;4.336;2023-02-01T00:23:22;8.80;;;4.27;;
20122;SDS011;10222;50.848;4.336;2023-02-01T00:25:49;8.00;;;4.37;;
20122;SDS011;10222;50.848;4.336;2023-02-01T00:28:17;12.63;;;4.60;;
20122;SDS011;10222;50.848;4.336;2023-02-01T00:30:44;9.73;;;3.97;;
20122;SDS011;10222;50.848;4.336;2023-02-01T00:33:11;11.23;;;4.37;;
20122;SDS011;10222;50.848;4.336;2023-02-01T00:35:37;11.90;;;5.40;;
20122;SDS011;10222;50.848;4.336;2023-02-01T00:38:03;7.57;;;3.67;;
20122;SDS011;10222;50.848;4.336;2023-02-01T00:40:29;12.13;;;4.20;;
20122;SDS011;10222;50.848;4.336;2023-02-01T00:42:55;9.50;;;4.27;;
20122;SDS011;10222;50.848;4.336;2023-02-01T00:45:22;9.50;;;4.77;;
20122;SDS011;10222;50.848;4.336;2023-02-01T00:47:51;12.73;;;3.67;;
20122;SDS011;10222;50.848;4.336;2023-02-01T00:50:17;9.50;;;3.20;;
20122;SDS011;10222;50.848;4.336;2023-02-01T00:52:43;11.17;;;4.10;;
20122;SDS011;10222;50.848;4.336;2023-02-01T00:55:09;7.77;;;3.77;;
20122;SDS011;10222;50.848;4.336;2023-02-01T00:57:39;6.47;;;3.90;;
20122;SDS011;10222;50.848;4.336;2023-02-01T01:00:05;10.73;;;3.53;;
20122;SDS011;10222;50.848;4.336;2023-02-01T01:02:33;6.77;;;2.83;;
20122;SDS011;10222;50.848;4.336;2023-02-01T01:05:02;6.20;;;3.70;;
20122;SDS011;10222;50.848;4.336;2023-02-01T01:09:57;7.73;;;3.03;;
20122;SDS011;10222;50.848;4.336;2023-02-01T01:12:24;11.60;;;3.83;;
20122;SDS011;10222;50.848;4.336;2023-02-01T01:14:51;10.80;;;3.40;;
20122;SDS011;10222;50.848;4.336;2023-02-01T01:17:18;6.90;;;2.80;;
20122;SDS011;10222;50.848;4.336;2023-02-01T01:19:46;10.80;;;2.70;;
20122;SDS011;10222;50.848;4.336;2023-02-01T01:22:13;8.07;;;2.47;;
20122;SDS011;10222;50.848;4.336;2023-02-01T01:24:43;8.27;;;2.53;;
20122;SDS011;10222;50.848;4.336;2023-02-01T01:27:10;10.17;;;2.47;;
20122;SDS011;10222;50.848;4.336;2023-02-01T01:29:37;8.43;;;3.20;;
20122;SDS011;10222;50.848;4.336;2023-02-01T01:32:03;3.93;;;1.87;;
20122;SDS011;10222;50.848;4.336;2023-02-01T01:34:30;2.60;;;1.30;;
20122;SDS011;10222;50.848;4.336;2023-02-01T01:36:56;11.60;;;2.30;;
20122;SDS011;10222;50.848;4.336;2023-02-01T01:39:22;11.00;;;3.03;;
20122;SDS011;10222;50.848;4.336;2023-02-01T01:41:48;5.13;;;1.80;;
20122;SDS011;10222;50.848;4.336;2023-02-01T01:47:04;5.77;;;1.57;;
20122;SDS011;10222;50.848;4.336;2023-02-01T01:49:31;4.83;;;1.60;;
20122;SDS011;10222;50.848;4.336;2023-02-01T01:54:28;4.80;;;1.87;;
20122;SDS011;10222;50.848;4.336;2023-02-01T01:57:00;5.07;;;1.40;;
20122;SDS011;10222;50.848;4.336;2023-02-01T01:59:30;7.37;;;1.87;;
20122;SDS011;10222;50.848;4.336;2023-02-01T02:01:57;2.63;;;1.40;;
20122;SDS011;10222;50.848;4.336;2023-02-01T02:04:23;4.67;;;1.50;;
20122;SDS011;10222;50.848;4.336;2023-02-01T02:06:51;16.10;;;2.53;;
20122;SDS011;10222;50.848;4.336;2023-02-01T02:09:21;7.77;;;1.70;;
20122;SDS011;10222;50.848;4.336;2023-02-01T02:11:48;7.43;;;1.50;;
20122;SDS011;10222;50.848;4.336;2023-02-01T02:14:16;7.40;;;1.50;;
20122;SDS011;10222;50.848;4.336;2023-02-01T02:19:22;6.77;;;1.50;;
20122;SDS011;10222;50.848;4.336;2023-02-01T02:22:09;5.33;;;1.37;;
20122;SDS011;10222;50.848;4.336;2023-02-01T02:35:28;7.80;;;1.53;;
20122;SDS011;10222;50.848;4.336;2023-02-01T02:40:30;11.37;;;2.40;;
20122;SDS011;10222;50.848;4.336;2023-02-01T02:43:06;5.57;;;1.50;;
20122;SDS011;10222;50.848;4.336;2023-02-01T02:46:01;7.10;;;1.77;;
20122;SDS011;10222;50.848;4.336;2023-02-01T02:48:51;7.07;;;2.40;;
20122;SDS011;10222;50.848;4.336;2023-02-01T02:51:28;5.93;;;1.67;;
20122;SDS011;10222;50.848;4.336;2023-02-01T02:54:15;9.87;;;1.73;;
20122;SDS011;10222;50.848;4.336;2023-02-01T02:57:06;6.90;;;2.17;;
20122;SDS011;10222;50.848;4.336;2023-02-01T02:59:52;6.60;;;1.43;;
20122;SDS011;10222;50.848;4.336;2023-02-01T03:02:39;8.20;;;1.50;;
20122;SDS011;10222;50.848;4.336;2023-02-01T03:05:24;3.97;;;1.63;;
20122;SDS011;10222;50.848;4.336;2023-02-01T03:12:51;7.40;;;1.53;;
20122;SDS011;10222;50.848;4.336;2023-02-01T03:15:41;3.73;;;1.07;;
20122;SDS011;10222;50.848;4.336;2023-02-01T03:18:17;9.83;;;2.07;;
20122;SDS011;10222;50.848;4.336;2023-02-01T03:20:48;6.80;;;1.50;;
20122;SDS011;10222;50.848;4.336;2023-02-01T03:23:18;6.57;;;1.57;;
20122;SDS011;10222;50.848;4.336;2023-02-01T03:25:47;8.73;;;1.60;;
20122;SDS011;10222;50.848;4.336;2023-02-01T03:28:15;6.03;;;1.43;;
20122;SDS011;10222;50.848;4.336;2023-02-01T03:30:46;6.43;;;1.90;;
20122;SDS011;10222;50.848;4.336;2023-02-01T03:33:17;2.80;;;1.13;;
20122;SDS011;10222;50.848;4.336;2023-02-01T03:41:16;12.13;;;1.70;;
20122;SDS011;10222;50.848;4.336;2023-02-01T03:46:17;7.67;;;1.90;;
20122;SDS011;10222;50.848;4.336;2023-02-01T03:48:46;9.83;;;2.37;;
20122;SDS011;10222;50.848;4.336;2023-02-01T03:51:15;9.93;;;1.67;;
20122;SDS011;10222;50.848;4.336;2023-02-01T03:53:41;14.20;;;1.90;;
20122;SDS011;10222;50.848;4.336;2023-02-01T03:56:10;10.13;;;2.67;;
20122;SDS011;10222;50.848;4.336;2023-02-01T04:01:07;7.60;;;1.57;;
20122;SDS011;10222;50.848;4.336;2023-02-01T04:03:33;5.20;;;1.33;;
20122;SDS011;10222;50.848;4.336;2023-02-01T04:06:02;6.17;;;1.20;;
20122;SDS011;10222;50.848;4.336;2023-02-01T04:08:28;5.73;;;1.97;;
20122;SDS011;10222;50.848;4.336;2023-02-01T04:10:54;4.63;;;1.30;;
20122;SDS011;10222;50.848;4.336;2023-02-01T04:15:50;6.23;;;1.50;;
20122;SDS011;10222;50.848;4.336;2023-02-01T04:18:16;7.77;;;1.63;;
20122;SDS011;10222;50.848;4.336;2023-02-01T04:23:12;3.40;;;1.77;;
20122;SDS011;10222;50.848;4.336;2023-02-01T04:25:40;5.93;;;1.93;;
20122;SDS011;10222;50.848;4.336;2023-02-01T04:28:07;5.20;;;1.20;;
20122;SDS011;10222;50.848;4.336;2023-02-01T04:30:34;10.63;;;1.70;;
20122;SDS011;10222;50.848;4.336;2023-02-01T04:33:00;9.87;;;1.63;;
20122;SDS011;10222;50.848;4.336;2023-02-01T04:35:30;9.07;;;3.13;;
20122;SDS011;10222;50.848;4.336;2023-02-01T04:38:02;5.20;;;1.10;;
20122;SDS011;10222;50.848;4.336;2023-02-01T04:40:29;7.17;;;1.20;;
20122;SDS011;10222;50.848;4.336;2023-02-01T04:43:01;7.03;;;1.70;;
20122;SDS011;10222;50.848;4.336;2023-02-01T04:45:28;8.40;;;1.73;;
20122;SDS011;10222;50.848;4.336;2023-02-01T04:47:54;11.20;;;2.47;;
20122;SDS011;10222;50.848;4.336;2023-02-01T04:50:20;6.50;;;1.60;;
20122;SDS011;10222;50.848;4.336;2023-02-01T04:52:47;6.97;;;2.10;;
20122;SDS011;10222;50.848;4.336;2023-02-01T04:55:15;9.90;;;1.77;;
20122;SDS011;10222;50.848;4.336;2023-02-01T04:57:43;3.33;;;1.07;;
20122;SDS011;10222;50.848;4.336;2023-02-01T05:00:09;7.37;;;1.47;;
20122;SDS011;10222;50.848;4.336;2023-02-01T05:02:36;7.57;;;1.93;;
20122;SDS011;10222;50.848;4.336;2023-02-01T05:05:04;9.60;;;2.07;;
20122;SDS011;10222;50.848;4.336;2023-02-01T05:07:31;3.50;;;2.10;;
20122;SDS011;10222;50.848;4.336;2023-02-01T05:09:57;7.30;;;2.37;;
20122;SDS011;10222;50.848;4.336;2023-02-01T05:12:25;8.10;;;2.03;;
20122;SDS011;10222;50.848;4.336;2023-02-01T05:15:13;8.30;;;1.40;;
20122;SDS011;10222;50.848;4.336;2023-02-01T05:17:39;3.87;;;1.03;;
20122;SDS011;10222;50.848;4.336;2023-02-01T05:20:07;3.67;;;1.47;;
20122;SDS011;10222;50.848;4.336;2023-02-01T05:22:35;9.17;;;1.97;;
20122;SDS011;10222;50.848;4.336;2023-02-01T05:25:02;7.73;;;1.77;;
20122;SDS011;10222;50.848;4.336;2023-02-01T05:27:31;10.23;;;2.10;;
20122;SDS011;10222;50.848;4.336;2023-02-01T05:29:57;10.77;;;2.00;;
20122;SDS011;10222;50.848;4.336;2023-02-01T05:32:29;8.60;;;1.57;;
20122;SDS011;10222;50.848;4.336;2023-02-01T05:34:56;8.03;;;1.30;;
20122;SDS011;10222;50.848;4.336;2023-02-01T05:37:24;3.73;;;1.30;;
20122;SDS011;10222;50.848;4.336;2023-02-01T05:39:51;9.30;;;1.73;;
20122;SDS011;10222;50.848;4.336;2023-02-01T05:44:46;5.33;;;2.03;;
20122;SDS011;10222;50.848;4.336;2023-02-01T05:47:12;10.20;;;1.50;;
20122;SDS011;10222;50.848;4.336;2023-02-01T05:49:42;2.27;;;0.93;;
20122;SDS011;10222;50.848;4.336;2023-02-01T05:52:09;5.20;;;1.27;;
20122;SDS011;10222;50.848;4.336;2023-02-01T05:54:35;10.00;;;1.60;;
20122;SDS011;10222;50.848;4.336;2023-02-01T05:57:01;3.83;;;1.60;;
20122;SDS011;10222;50.848;4.336;2023-02-01T05:59:27;6.07;;;1.60;;
20122;SDS011;10222;50.848;4.336;2023-02-01T06:01:54;6.50;;;1.60;;
20122;SDS011;10222;50.848;4.336;2023-02-01T06:04:20;5.83;;;1.47;;
20122;SDS011;10222;50.848;4.336;2023-02-01T06:06:46;6.23;;;1.80;;
20122;SDS011;10222;50.848;4.336;2023-02-01T06:09:16;5.90;;;1.47;;
20122;SDS011;10222;50.848;4.336;2023-02-01T06:11:42;7.33;;;1.37;;
20122;SDS011;10222;50.848;4.336;2023-02-01T06:14:08;9.27;;;1.33;;
20122;SDS011;10222;50.848;4.336;2023-02-01T06:16:34;6.90;;;1.33;;
20122;SDS011;10222;50.848;4.336;2023-02-01T06:19:01;4.90;;;1.47;;
20122;SDS011;10222;50.848;4.336;2023-02-01T06:21:30;6.87;;;2.00;;
20122;SDS011;10222;50.848;4.336;2023-02-01T06:23:56;3.97;;;1.23;;
20122;SDS011;10222;50.848;4.336;2023-02-01T06:26:23;7.53;;;1.20;;
20122;SDS011;10222;50.848;4.336;2023-02-01T06:28:51;4.13;;;1.20;;
20122;SDS011;10222;50.848;4.336;2023-02-01T06:31:18;8.83;;;1.60;;
20122;SDS011;10222;50.848;4.336;2023-02-01T06:33:44;5.67;;;1.63;;
20122;SDS011;10222;50.848;4.336;2023-02-01T06:36:11;7.57;;;1.77;;
20122;SDS011;10222;50.848;4.336;2023-02-01T06:38:37;8.77;;;2.20;;
20122;SDS011;10222;50.848;4.336;2023-02-01T06:41:04;2.53;;;1.00;;
20122;SDS011;10222;50.848;4.336;2023-02-01T06:43:32;5.90;;;2.13;;
20122;SDS011;10222;50.848;4.336;2023-02-01T06:45:59;5.37;;;1.40;;
20122;SDS011;10222;50.848;4.336;2023-02-01T06:48:26;7.87;;;1.07;;
20122;SDS011;10222;50.848;4.336;2023-02-01T06:50:52;2.70;;;1.07;;
20122;SDS011;10222;50.848;4.336;2023-02-01T06:53:18;4.93;;;1.50;;
20122;SDS011;10222;50.848;4.336;2023-02-01T06:55:56;6.90;;;2.03;;
20122;SDS011;10222;50.848;4.336;2023-02-01T06:58:23;7.43;;;1.50;;
20122;SDS011;10222;50.848;4.336;2023-02-01T07:00:49;3.00;;;1.47;;
20122;SDS011;10222;50.848;4.336;2023-02-01T07:03:16;10.97;;;2.57;;
20122;SDS011;10222;50.848;4.336;2023-02-01T07:05:42;13.77;;;1.57;;
20122;SDS011;10222;50.848;4.336;2023-02-01T07:08:08;8.73;;;1.67;;
20122;SDS011;10222;50.848;4.336;2023-02-01T07:10:37;5.17;;;1.57;;
20122;SDS011;10222;50.848;4.336;2023-02-01T07:13:03;9.53;;;1.60;;
20122;SDS011;10222;50.848;4.336;2023-02-01T07:15:30;9.90;;;1.67;;
20122;SDS011;10222;50.848;4.336;2023-02-01T07:17:58;13.03;;;2.43;;
20122;SDS011;10222;50.848;4.336;2023-02-01T07:20:24;7.37;;;2.30;;
20122;SDS011;10222;50.848;4.336;2023-02-01T07:22:54;7.13;;;1.63;;
20122;SDS011;10222;50.848;4.336;2023-02-01T07:25:22;3.23;;;1.40;;
20122;SDS011;10222;50.848;4.336;2023-02-01T07:27:49;11.30;;;2.43;;
20122;SDS011;10222;50.848;4.336;2023-02-01T07:30:16;7.13;;;2.80;;
20122;SDS011;10222;50.848;4.336;2023-02-01T07:32:42;4.33;;;1.23;;
20122;SDS011;10222;50.848;4.336;2023-02-01T07:35:10;9.33;;;1.27;;
20122;SDS011;10222;50.848;4.336;2023-02-01T07:37:36;7.80;;;1.70;;
20122;SDS011;10222;50.848;4.336;2023-02-01T07:40:04;9.57;;;2.10;;
20122;SDS011;10222;50.848;4.336;2023-02-01T07:42:30;8.97;;;2.33;;
20122;SDS011;10222;50.848;4.336;2023-02-01T07:44:56;7.30;;;1.30;;
20122;SDS011;10222;50.848;4.336;2023-02-01T07:47:28;9.23;;;1.53;;
20122;SDS011;10222;50.848;4.336;2023-02-01T07:49:54;13.50;;;2.23;;
20122;SDS011;10222;50.848;4.336;2023-02-01T07:52:20;10.73;;;1.90;;
20122;SDS011;10222;50.848;4.336;2023-02-01T07:54:47;7.03;;;1.57;;
20122;SDS011;10222;50.848;4.336;2023-02-01T07:57:14;8.63;;;1.20;;
20122;SDS011;10222;50.848;4.336;2023-02-01T07:59:43;4.77;;;1.83;;
20122;SDS011;10222;50.848;4.336;2023-02-01T08:02:30;4.33;;;1.27;;
20122;SDS011;10222;50.848;4.336;2023-02-01T08:04:58;9.10;;;1.50;;
20122;SDS011;10222;50.848;4.336;2023-02-01T08:07:25;5.87;;;2.10;;
20122;SDS011;10222;50.848;4.336;2023-02-01T08:09:52;10.17;;;1.83;;
20122;SDS011;10222;50.848;4.336;2023-02-01T08:12:19;10.07;;;1.90;;
20122;SDS011;10222;50.848;4.336;2023-02-01T08:14:45;12.97;;;1.73;;
20122;SDS011;10222;50.848;4.336;2023-02-01T08:17:12;5.80;;;1.33;;
20122;SDS011;10222;50.848;4.336;2023-02-01T08:19:40;8.50;;;1.57;;
20122;SDS011;10222;50.848;4.336;2023-02-01T08:22:07;9.73;;;2.23;;
20122;SDS011;10222;50.848;4.336;2023-02-01T08:24:33;5.57;;;1.40;;
20122;SDS011;10222;50.848;4.336;2023-02-01T08:27:00;5.80;;;1.53;;
20122;SDS011;10222;50.848;4.336;2023-02-01T08:29:27;6.63;;;1.50;;
20122;SDS011;10222;50.848;4.336;2023-02-01T08:31:53;10.77;;;1.77;;
20122;SDS011;10222;50.848;4.336;2023-02-01T08:34:21;11.37;;;2.03;;
20122;SDS011;10222;50.848;4.336;2023-02-01T08:36:47;6.93;;;1.60;;
20122;SDS011;10222;50.848;4.336;2023-02-01T08:39:13;6.03;;;1.90;;
20122;SDS011;10222;50.848;4.336;2023-02-01T08:41:40;8.97;;;2.20;;
20122;SDS011;10222;50.848;4.336;2023-02-01T08:44:27;5.70;;;1.70;;
20122;SDS011;10222;50.848;4.336;2023-02-01T08:46:54;6.27;;;2.00;;
20122;SDS011;10222;50.848;4.336;2023-02-01T08:49:20;5.70;;;1.40;;
20122;SDS011;10222;50.848;4.336;2023-02-01T08:51:47;4.97;;;1.50;;
20122;SDS011;10222;50.848;4.336;2023-02-01T08:54:14;6.20;;;1.73;;
20122;SDS011;10222;50.848;4.336;2023-02-01T08:56:40;3.67;;;1.73;;
20122;SDS011;10222;50.848;4.336;2023-02-01T08:59:06;5.77;;;2.13;;
20122;SDS011;10222;50.848;4.336;2023-02-01T09:01:32;5.03;;;1.33;;
20122;SDS011;10222;50.848;4.336;2023-02-01T09:03:58;7.97;;;1.70;;
20122;SDS011;10222;50.848;4.336;2023-02-01T09:06:26;7.43;;;1.77;;
20122;SDS011;10222;50.848;4.336;2023-02-01T09:08:52;8.27;;;1.50;;
20122;SDS011;10222;50.848;4.336;2023-02-01T09:11:18;5.37;;;1.57;;
20122;SDS011;10222;50.848;4.336;2023-02-01T09:13:44;3.20;;;1.40;;
20122;SDS011;10222;50.848;4.336;2023-02-01T09:16:11;7.07;;;2.03;;
20122;SDS011;10222;50.848;4.336;2023-02-01T09:18:37;10.97;;;2.43;;
20122;SDS011;10222;50.848;4.336;2023-02-01T09:21:04;2.50;;;1.37;;
20122;SDS011;10222;50.848;4.336;2023-02-01T09:23:30;4.20;;;2.13;;
20122;SDS011;10222;50.848;4.336;2023-02-01T09:26:01;5.53;;;1.57;;
20122;SDS011;10222;50.848;4.336;2023-02-01T09:28:27;8.17;;;1.47;;
20122;SDS011;10222;50.848;4.336;2023-02-01T09:30:57;10.10;;;1.90;;
20122;SDS011;10222;50.848;4.336;2023-02-01T09:33:29;11.87;;;1.90;;
20122;SDS011;10222;50.848;4.336;2023-02-01T09:36:01;9.20;;;2.00;;
20122;SDS011;10222;50.848;4.336;2023-02-01T09:38:27;6.67;;;2.30;;
20122;SDS011;10222;50.848;4.336;2023-02-01T09:40:54;6.30;;;1.40;;
20122;SDS011;10222;50.848;4.336;2023-02-01T09:43:34;3.90;;;1.97;;
20122;SDS011;10222;50.848;4.336;2023-02-01T09:48:43;4.57;;;1.50;;
20122;SDS011;10222;50.848;4.336;2023-02-01T09:51:18;7.70;;;1.47;;
20122;SDS011;10222;50.848;4.336;2023-02-01T09:53:53;10.40;;;2.10;;
20122;SDS011;10222;50.848;4.336;2023-02-01T09:56:24;6.67;;;1.57;;
20122;SDS011;10222;50.848;4.336;2023-02-01T09:58:59;10.80;;;1.77;;
20122;SDS011;10222;50.848;4.336;2023-02-01T10:01:28;4.73;;;1.33;;
20122;SDS011;10222;50.848;4.336;2023-02-01T10:03:59;7.60;;;1.57;;
20122;SDS011;10222;50.848;4.336;2023-02-01T10:12:04;9.73;;;1.83;;
20122;SDS011;10222;50.848;4.336;2023-02-01T10:25:53;3.90;;;1.00;;
20122;SDS011;10222;50.848;4.336;2023-02-01T10:28:22;7.37;;;1.97;;
20122;SDS011;10222;50.848;4.336;2023-02-01T10:30:54;6.90;;;1.20;;
20122;SDS011;10222;50.848;4.336;2023-02-01T10:33:26;6.90;;;1.23;;
20122;SDS011;10222;50.848;4.336;2023-02-01T10:38:27;7.30;;;2.37;;
20122;SDS011;10222;50.848;4.336;2023-02-01T10:40:54;2.20;;;1.60;;
20122;SDS011;10222;50.848;4.336;2023-02-01T10:43:24;10.57;;;2.03;;
20122;SDS011;10222;50.848;4.336;2023-02-01T10:45:50;8.67;;;2.00;;
20122;SDS011;10222;50.848;4.336;2023-02-01T10:48:17;5.90;;;1.20;;
20122;SDS011;10222;50.848;4.336;2023-02-01T10:56:10;4.70;;;1.20;;
20122;SDS011;10222;50.848;4.336;2023-02-01T10:58:47;7.33;;;1.17;;
20122;SDS011;10222;50.848;4.336;2023-02-01T11:01:17;6.40;;;1.60;;
20122;SDS011;10222;50.848;4.336;2023-02-01T11:03:44;7.17;;;1.17;;
20122;SDS011;10222;50.848;4.336;2023-02-01T11:08:48;2.97;;;1.23;;
20122;SDS011;10222;50.848;4.336;2023-02-01T11:11:17;10.93;;;1.77;;
20122;SDS011;10222;50.848;4.336;2023-02-01T11:13:44;4.67;;;1.23;;
20122;SDS011;10222;50.848;4.336;2023-02-01T11:16:17;5.40;;;1.10;;
20122;SDS011;10222;50.848;4.336;2023-02-01T11:18:44;7.97;;;1.27;;
20122;SDS011;10222;50.848;4.336;2023-02-01T11:21:11;7.10;;;1.77;;
20122;SDS011;10222;50.848;4.336;2023-02-01T11:23:41;6.00;;;1.47;;
20122;SDS011;10222;50.848;4.336;2023-02-01T11:26:19;4.30;;;1.27;;
20122;SDS011;10222;50.848;4.336;2023-02-01T11:28:59;5.37;;;1.27;;
20122;SDS011;10222;50.848;4.336;2023-02-01T11:31:28;2.30;;;0.93;;
20122;SDS011;10222;50.848;4.336;2023-02-01T11:33:55;1.90;;;1.00;;
20122;SDS011;10222;50.848;4.336;2023-02-01T11:36:28;4.13;;;1.17;;
20122;SDS011;10222;50.848;4.336;2023-02-01T11:41:40;6.80;;;1.10;;
20122;SDS011;10222;50.848;4.336;2023-02-01T11:44:30;8.83;;;1.43;;
20122;SDS011;10222;50.848;4.336;2023-02-01T11:46:56;1.97;;;0.90;;
20122;SDS011;10222;50.848;4.336;2023-02-01T11:49:23;1.67;;;0.80;;
20122;SDS011;10222;50.848;4.336;2023-02-01T11:56:58;8.83;;;1.03;;
20122;SDS011;10222;50.848;4.336;2023-02-01T12:02:08;1.90;;;0.70;;
20122;SDS011;10222;50.848;4.336;2023-02-01T12:04:55;3.20;;;0.93;;
20122;SDS011;10222;50.848;4.336;2023-02-01T12:07:39;7.50;;;1.57;;
20122;SDS011;10222;50.848;4.336;2023-02-01T12:10:17;3.83;;;1.27;;
20122;SDS011;10222;50.848;4.336;2023-02-01T12:20:42;7.30;;;1.10;;
20122;SDS011;10222;50.848;4.336;2023-02-01T12:23:20;6.77;;;1.00;;
20122;SDS011;10222;50.848;4.336;2023-02-01T12:31:05;4.53;;;0.87;;
20122;SDS011;10222;50.848;4.336;2023-02-01T12:46:23;2.43;;;0.60;;
20122;SDS011;10222;50.848;4.336;2023-02-01T12:51:32;2.13;;;0.90;;
20122;SDS011;10222;50.848;4.336;2023-02-01T12:54:19;1.10;;;0.70;;
20122;SDS011;10222;50.848;4.336;2023-02-01T12:56:47;5.10;;;1.07;;
20122;SDS011;10222;50.848;4.336;2023-02-01T13:01:45;3.97;;;0.97;;
20122;SDS011;10222;50.848;4.336;2023-02-01T13:04:28;3.63;;;0.87;;
20122;SDS011;10222;50.848;4.336;2023-02-01T13:07:07;7.70;;;1.07;;
20122;SDS011;10222;50.848;4.336;2023-02-01T13:14:54;4.30;;;0.80;;
20122;SDS011;10222;50.848;4.336;2023-02-01T13:17:28;2.67;;;0.57;;
20122;SDS011;10222;50.848;4.336;2023-02-01T13:20:05;4.47;;;0.87;;
20122;SDS011;10222;50.848;4.336;2023-02-01T13:22:39;5.03;;;0.80;;
20122;SDS011;10222;50.848;4.336;2023-02-01T13:25:13;3.73;;;0.73;;
20122;SDS011;10222;50.848;4.336;2023-02-01T13:27:39;2.90;;;0.50;;
20122;SDS011;10222;50.848;4.336;2023-02-01T13:38:18;3.27;;;1.07;;
20122;SDS011;10222;50.848;4.336;2023-02-01T13:42:54;16.53;;;1.73;;
20122;SDS011;10222;50.848;4.336;2023-02-01T13:45:24;5.90;;;1.00;;
20122;SDS011;10222;50.848;4.336;2023-02-01T13:47:52;5.17;;;0.93;;
20122;SDS011;10222;50.848;4.336;2023-02-01T13:50:27;1.60;;;0.80;;
20122;SDS011;10222;50.848;4.336;2023-02-01T13:52:56;1.57;;;0.50;;
20122;SDS011;10222;50.848;4.336;2023-02-01T13:55:27;2.67;;;0.60;;
20122;SDS011;10222;50.848;4.336;2023-02-01T13:58:38;6.63;;;1.53;;
20122;SDS011;10222;50.848;4.336;2023-02-01T14:00:45;5.90;;;1.20;;
20122;SDS011;10222;50.848;4.336;2023-02-01T14:03:12;5.07;;;0.87;;
20122;SDS011;10222;50.848;4.336;2023-02-01T14:23:47;4.60;;;0.80;;
20122;SDS011;10222;50.848;4.336;2023-02-01T14:26:15;3.20;;;0.97;;
20122;SDS011;10222;50.848;4.336;2023-02-01T14:28:43;3.53;;;1.17;;
20122;SDS011;10222;50.848;4.336;2023-02-01T14:31:17;1.80;;;1.00;;
20122;SDS011;10222;50.848;4.336;2023-02-01T14:33:44;6.17;;;1.73;;
20122;SDS011;10222;50.848;4.336;2023-02-01T14:36:12;7.57;;;1.40;;
20122;SDS011;10222;50.848;4.336;2023-02-01T14:38:38;2.53;;;0.80;;
20122;SDS011;10222;50.848;4.336;2023-02-01T14:41:25;4.03;;;1.30;;
20122;SDS011;10222;50.848;4.336;2023-02-01T14:49:09;4.93;;;0.93;;
20122;SDS011;10222;50.848;4.336;2023-02-01T14:51:35;2.90;;;1.17;;
20122;SDS011;10222;50.848;4.336;2023-02-01T14:54:02;4.57;;;0.80;;
20122;SDS011;10222;50.848;4.336;2023-02-01T14:56:28;8.40;;;1.63;;
20122;SDS011;10222;50.848;4.336;2023-02-01T14:59:01;8.53;;;1.90;;
20122;SDS011;10222;50.848;4.336;2023-02-01T15:01:34;6.90;;;1.10;;
20122;SDS011;10222;50.848;4.336;2023-02-01T15:04:06;6.87;;;0.80;;
20122;SDS011;10222;50.848;4.336;2023-02-01T15:06:33;3.70;;;0.70;;
20122;SDS011;10222;50.848;4.336;2023-02-01T15:11:31;4.63;;;1.80;;
20122;SDS011;10222;50.848;4.336;2023-02-01T15:13:57;4.17;;;0.90;;
20122;SDS011;10222;50.848;4.336;2023-02-01T15:16:25;3.80;;;1.33;;
20122;SDS011;10222;50.848;4.336;2023-02-01T15:19:06;6.90;;;1.03;;
20122;SDS011;10222;50.848;4.336;2023-02-01T15:21:32;8.30;;;0.90;;
20122;SDS011;10222;50.848;4.336;2023-02-01T15:24:12;6.50;;;1.20;;
20122;SDS011;10222;50.848;4.336;2023-02-01T15:26:38;13.33;;;1.87;;
20122;SDS011;10222;50.848;4.336;2023-02-01T15:29:04;8.07;;;1.43;;
20122;SDS011;10222;50.848;4.336;2023-02-01T15:31:37;3.33;;;1.13;;
20122;SDS011;10222;50.848;4.336;2023-02-01T15:34:04;4.70;;;1.00;;
20122;SDS011;10222;50.848;4.336;2023-02-01T15:36:30;4.40;;;0.87;;
20122;SDS011;10222;50.848;4.336;2023-02-01T15:39:13;6.70;;;1.37;;
20122;SDS011;10222;50.848;4.336;2023-02-01T15:41:43;6.53;;;1.33;;
20122;SDS011;10222;50.848;4.336;2023-02-01T15:44:15;6.60;;;2.00;;
20122;SDS011;10222;50.848;4.336;2023-02-01T15:46:43;3.63;;;1.07;;
20122;SDS011;10222;50.848;4.336;2023-02-01T15:49:30;7.80;;;1.30;;
20122;SDS011;10222;50.848;4.336;2023-02-01T15:51:58;5.30;;;2.07;;
20122;SDS011;10222;50.848;4.336;2023-02-01T15:54:28;7.03;;;0.97;;
20122;SDS011;10222;50.848;4.336;2023-02-01T15:56:56;3.50;;;1.50;;
20122;SDS011;10222;50.848;4.336;2023-02-01T15:59:24;6.17;;;1.53;;
20122;SDS011;10222;50.848;4.336;2023-02-01T16:01:51;4.33;;;1.33;;
20122;SDS011;10222;50.848;4.336;2023-02-01T16:04:18;4.20;;;1.60;;
20122;SDS011;10222;50.848;4.336;2023-02-01T16:09:14;5.37;;;1.53;;
20122;SDS011;10222;50.848;4.336;2023-02-01T16:11:57;6.87;;;1.00;;
20122;SDS011;10222;50.848;4.336;2023-02-01T16:14:23;8.73;;;1.67;;
20122;SDS011;10222;50.848;4.336;2023-02-01T16:16:50;8.50;;;1.43;;
20122;SDS011;10222;50.848;4.336;2023-02-01T16:19:16;4.47;;;1.40;;
20122;SDS011;10222;50.848;4.336;2023-02-01T16:21:43;1.73;;;0.80;;
20122;SDS011;10222;50.848;4.336;2023-02-01T16:24:10;7.03;;;1.20;;
20122;SDS011;10222;50.848;4.336;2023-02-01T16:26:36;7.77;;;2.03;;
20122;SDS011;10222;50.848;4.336;2023-02-01T16:29:03;8.73;;;2.17;;
20122;SDS011;10222;50.848;4.336;2023-02-01T16:31:31;9.00;;;2.70;;
20122;SDS011;10222;50.848;4.336;2023-02-01T16:33:58;7.43;;;1.63;;
20122;SDS011;10222;50.848;4.336;2023-02-01T16:36:24;5.40;;;1.73;;
20122;SDS011;10222;50.848;4.336;2023-02-01T16:38:53;6.30;;;1.77;;
20122;SDS011;10222;50.848;4.336;2023-02-01T16:41:19;3.63;;;0.87;;
20122;SDS011;10222;50.848;4.336;2023-02-01T16:43:49;3.23;;;1.77;;
20122;SDS011;10222;50.848;4.336;2023-02-01T16:46:16;10.63;;;1.40;;
20122;SDS011;10222;50.848;4.336;2023-02-01T16:48:45;7.13;;;1.87;;
20122;SDS011;10222;50.848;4.336;2023-02-01T16:51:12;5.43;;;1.00;;
20122;SDS011;10222;50.848;4.336;2023-02-01T16:53:39;3.63;;;1.47;;
20122;SDS011;10222;50.848;4.336;2023-02-01T16:56:15;10.40;;;1.70;;
20122;SDS011;10222;50.848;4.336;2023-02-01T16:58:42;1.90;;;1.00;;
20122;SDS011;10222;50.848;4.336;2023-02-01T17:01:08;6.90;;;1.70;;
20122;SDS011;10222;50.848;4.336;2023-02-01T17:03:36;5.73;;;1.37;;
20122;SDS011;10222;50.848;4.336;2023-02-01T17:06:02;4.70;;;1.70;;
20122;SDS011;10222;50.848;4.336;2023-02-01T17:08:29;4.20;;;1.10;;
20122;SDS011;10222;50.848;4.336;2023-02-01T17:10:56;7.57;;;1.00;;
20122;SDS011;10222;50.848;4.336;2023-02-01T17:13:22;6.80;;;1.63;;
20122;SDS011;10222;50.848;4.336;2023-02-01T17:15:49;11.27;;;1.53;;
20122;SDS011;10222;50.848;4.336;2023-02-01T17:18:16;3.27;;;0.70;;
20122;SDS011;10222;50.848;4.336;2023-02-01T17:20:42;6.30;;;1.37;;
20122;SDS011;10222;50.848;4.336;2023-02-01T17:23:08;6.23;;;1.30;;
20122;SDS011;10222;50.848;4.336;2023-02-01T17:25:34;5.00;;;1.60;;
20122;SDS011;10222;50.848;4.336;2023-02-01T17:28:02;5.90;;;1.20;;
20122;SDS011;10222;50.848;4.336;2023-02-01T17:30:28;4.87;;;1.57;;
20122;SDS011;10222;50.848;4.336;2023-02-01T17:32:55;3.03;;;1.10;;
20122;SDS011;10222;50.848;4.336;2023-02-01T17:35:22;4.20;;;1.70;;
20122;SDS011;10222;50.848;4.336;2023-02-01T17:37:49;5.77;;;1.60;;
20122;SDS011;10222;50.848;4.336;2023-02-01T17:40:15;4.07;;;1.23;;